Time;durP1;ratioP1;P1;durP2;ratioP2;P2;SDS_P1;SDS_P2;PMS_P1;PMS_P2;Temp;Humidity;BMP_temperature;BMP_pressure;BME280_temperature;BME280_humidity;BME280_pressure;Samples;Min_cycle;Max_cycle;Signal;HPM_P1;HPM_P2
2021/12/24 00:00:14;;;;;;;63.60;36.30;;;;;;;;;;5068571;28;20210;-70
2021/12/24 00:02:40;;;;;;;72.23;38.13;;;;;;;;;;5069001;28;20219;-69
2021/12/24 00:05:09;;;;;;;66.13;33.37;;;;;;;;;;5066672;28;20270;-70
2021/12/24 00:07:35;;;;;;;61.23;33.60;;;;;;;;;;5068510;28;20221;-69
2021/12/24 00:10:02;;;;;;;70.83;34.23;;;;;;;;;;5067207;28;20299;-69
2021/12/24 00:12:32;;;;;;;64.23;33.30;;;;;;;;;;5068888;28;20228;-69
2021/12/24 00:15:04;;;;;;;54.03;30.50;;;;;;;;;;5068067;28;20238;-70
2021/12/24 00:17:34;;;;;;;59.70;31.40;;;;;;;;;;5068508;28;20233;-69
2021/12/24 00:20:14;;;;;;;52.60;29.83;;;;;;;;;;5067975;28;20217;-69
2021/12/24 00:23:14;;;;;;;48.50;28.80;;;;;;;;;;5069189;28;20214;-72
2021/12/24 00:36:36;;;;;;;54.23;30.70;;;;;;;;;;5072877;28;20327;-69
2021/12/24 00:39:04;;;;;;;53.27;29.07;;;;;;;;;;5072420;28;20236;-69
2021/12/24 00:41:31;;;;;;;52.77;30.50;;;;;;;;;;5072179;28;20603;-69
2021/12/24 00:43:58;;;;;;;56.77;31.37;;;;;;;;;;5071389;28;20657;-70
2021/12/24 00:46:24;;;;;;;55.93;31.33;;;;;;;;;;5073025;28;20771;-70
2021/12/24 00:48:53;;;;;;;55.63;31.53;;;;;;;;;;5072156;28;20226;-70
2021/12/24 00:51:23;;;;;;;66.80;33.10;;;;;;;;;;5071902;28;21329;-70
2021/12/24 00:56:35;;;;;;;65.03;33.80;;;;;;;;;;5071043;28;20241;-70
2021/12/24 00:59:02;;;;;;;54.27;31.03;;;;;;;;;;5071990;28;20215;-70
2021/12/24 01:01:29;;;;;;;57.10;32.60;;;;;;;;;;5072100;28;20226;-69
2021/12/24 01:03:55;;;;;;;55.17;30.77;;;;;;;;;;5070796;28;20210;-70
2021/12/24 01:06:22;;;;;;;50.90;28.47;;;;;;;;;;5070699;28;20640;-70
2021/12/24 01:08:48;;;;;;;55.70;31.47;;;;;;;;;;5071764;28;20275;-69
2021/12/24 01:11:15;;;;;;;51.57;31.53;;;;;;;;;;5071023;28;20982;-69
2021/12/24 01:13:42;;;;;;;54.10;30.97;;;;;;;;;;5071219;28;20318;-70
2021/12/24 01:16:18;;;;;;;65.93;34.77;;;;;;;;;;5071903;28;20259;-70
2021/12/24 01:18:53;;;;;;;65.30;33.67;;;;;;;;;;5072941;28;20248;-70
2021/12/24 01:21:33;;;;;;;73.57;34.17;;;;;;;;;;5070379;28;20431;-70
2021/12/24 01:24:02;;;;;;;67.30;33.53;;;;;;;;;;5071421;28;20270;-72
2021/12/24 01:26:37;;;;;;;63.87;33.00;;;;;;;;;;5071981;28;20271;-70
2021/12/24 01:29:33;;;;;;;64.37;32.20;;;;;;;;;;5071501;28;20233;-70
2021/12/24 01:40:22;;;;;;;88.83;36.23;;;;;;;;;;5070899;28;20786;-70
2021/12/24 01:42:48;;;;;;;67.00;33.30;;;;;;;;;;5071473;28;20757;-70
2021/12/24 01:45:20;;;;;;;78.17;35.60;;;;;;;;;;5071306;28;20304;-70
2021/12/24 01:47:47;;;;;;;88.57;38.17;;;;;;;;;;5068944;28;20233;-70
2021/12/24 01:50:14;;;;;;;69.87;34.17;;;;;;;;;;5068993;28;20335;-72
2021/12/24 01:52:41;;;;;;;74.43;34.90;;;;;;;;;;5069968;28;20212;-70
2021/12/24 01:55:08;;;;;;;61.30;32.13;;;;;;;;;;5070461;28;20420;-72
2021/12/24 01:57:36;;;;;;;66.40;33.70;;;;;;;;;;5069798;28;20214;-70
2021/12/24 02:00:05;;;;;;;62.70;31.50;;;;;;;;;;5071209;28;20259;-72
2021/12/24 02:02:33;;;;;;;58.20;29.80;;;;;;;;;;5069503;28;20283;-70
2021/12/24 02:04:59;;;;;;;44.20;25.20;;;;;;;;;;5068792;28;20288;-71
2021/12/24 02:07:26;;;;;;;44.90;25.33;;;;;;;;;;5069159;28;20208;-72
2021/12/24 02:09:54;;;;;;;41.67;23.97;;;;;;;;;;5071604;28;20230;-72
2021/12/24 02:12:22;;;;;;;38.93;21.93;;;;;;;;;;5070543;28;20211;-71
2021/12/24 02:14:52;;;;;;;47.50;26.53;;;;;;;;;;5071190;28;20217;-72
2021/12/24 02:28:40;;;;;;;28.77;19.57;;;;;;;;;;5030527;28;20236;-73
2021/12/24 02:31:10;;;;;;;27.33;17.07;;;;;;;;;;5059790;28;20281;-72
2021/12/24 02:33:37;;;;;;;26.70;18.07;;;;;;;;;;5070290;28;20264;-71
2021/12/24 02:36:06;;;;;;;22.40;16.27;;;;;;;;;;5070558;28;20292;-71
2021/12/24 02:38:33;;;;;;;29.90;19.00;;;;;;;;;;5070009;28;21199;-70
2021/12/24 02:41:02;;;;;;;24.87;17.47;;;;;;;;;;5069344;28;20226;-73
2021/12/24 02:43:28;;;;;;;27.70;18.40;;;;;;;;;;5069601;28;20531;-70
2021/12/24 02:45:59;;;;;;;24.80;16.33;;;;;;;;;;5070138;28;20275;-70
2021/12/24 02:53:57;;;;;;;30.87;21.20;;;;;;;;;;5071374;28;20395;-70
2021/12/24 02:56:26;;;;;;;28.27;20.00;;;;;;;;;;5071607;28;20238;-70
2021/12/24 02:58:53;;;;;;;33.57;23.30;;;;;;;;;;5069920;28;20298;-69
2021/12/24 03:01:23;;;;;;;31.50;22.10;;;;;;;;;;5068730;28;20236;-70
2021/12/24 03:03:50;;;;;;;36.50;23.83;;;;;;;;;;5069872;28;20249;-70
2021/12/24 03:06:21;;;;;;;33.37;22.73;;;;;;;;;;5068846;28;20225;-70
2021/12/24 03:08:47;;;;;;;29.63;22.20;;;;;;;;;;5069961;28;20203;-70
2021/12/24 03:11:15;;;;;;;32.97;21.67;;;;;;;;;;5068506;28;20235;-70
2021/12/24 03:13:42;;;;;;;32.80;23.57;;;;;;;;;;5069500;28;20218;-71
2021/12/24 03:16:08;;;;;;;31.37;23.27;;;;;;;;;;5070382;28;20226;-70
2021/12/24 03:18:39;;;;;;;38.23;24.40;;;;;;;;;;5069231;28;20222;-70
2021/12/24 03:21:10;;;;;;;41.33;24.40;;;;;;;;;;5068493;28;20207;-73
2021/12/24 03:23:41;;;;;;;34.10;23.17;;;;;;;;;;5069842;28;20253;-70
2021/12/24 03:26:10;;;;;;;30.63;21.67;;;;;;;;;;5067861;28;20214;-70
2021/12/24 03:28:37;;;;;;;36.40;22.50;;;;;;;;;;5069213;28;20279;-70
2021/12/24 03:31:04;;;;;;;35.83;22.40;;;;;;;;;;5070073;28;20225;-72
2021/12/24 03:33:31;;;;;;;32.03;21.77;;;;;;;;;;5068562;28;20266;-70
2021/12/24 03:35:57;;;;;;;37.43;23.27;;;;;;;;;;5067724;28;20591;-70
2021/12/24 03:38:24;;;;;;;38.37;23.70;;;;;;;;;;5068715;28;20219;-70
2021/12/24 03:40:52;;;;;;;32.63;21.37;;;;;;;;;;5069781;28;20285;-70
2021/12/24 03:43:18;;;;;;;30.73;20.77;;;;;;;;;;5067899;28;20210;-70
2021/12/24 03:45:56;;;;;;;29.23;19.83;;;;;;;;;;5069034;28;20701;-70
2021/12/24 03:48:27;;;;;;;26.37;17.73;;;;;;;;;;5068788;28;20206;-70
2021/12/24 03:50:59;;;;;;;27.33;15.90;;;;;;;;;;5068732;28;20234;-69
2021/12/24 03:56:15;;;;;;;23.50;16.13;;;;;;;;;;5069328;28;20349;-71
2021/12/24 03:58:41;;;;;;;20.53;15.50;;;;;;;;;;5068921;28;20730;-70
2021/12/24 04:01:09;;;;;;;24.67;14.97;;;;;;;;;;5069173;28;20644;-70
2021/12/24 04:03:35;;;;;;;24.63;15.63;;;;;;;;;;5073486;28;20263;-70
2021/12/24 04:06:02;;;;;;;26.10;14.77;;;;;;;;;;5073091;28;20538;-70
2021/12/24 04:08:30;;;;;;;26.30;13.97;;;;;;;;;;5070268;28;20215;-70
2021/12/24 04:10:57;;;;;;;29.03;13.50;;;;;;;;;;5071044;28;20314;-70
2021/12/24 04:13:25;;;;;;;21.73;14.77;;;;;;;;;;5072349;28;20250;-70
2021/12/24 04:15:51;;;;;;;22.13;13.20;;;;;;;;;;5071814;28;20233;-70
2021/12/24 04:18:23;;;;;;;20.57;13.17;;;;;;;;;;5072604;28;20242;-70
2021/12/24 04:26:13;;;;;;;23.27;14.80;;;;;;;;;;5042135;28;20713;-70
2021/12/24 04:28:42;;;;;;;24.47;14.87;;;;;;;;;;5072453;28;20211;-70
2021/12/24 04:31:08;;;;;;;25.87;14.40;;;;;;;;;;5071347;28;20661;-69
2021/12/24 04:33:37;;;;;;;27.87;14.53;;;;;;;;;;5073768;28;20213;-70
2021/12/24 04:36:19;;;;;;;25.67;15.10;;;;;;;;;;5071620;28;20211;-70
2021/12/24 04:52:49;;;;;;;20.47;13.27;;;;;;;;;;5072573;28;20743;-70
2021/12/24 05:03:32;;;;;;;22.50;13.13;;;;;;;;;;5071201;28;20231;-69
2021/12/24 05:06:11;;;;;;;24.70;14.50;;;;;;;;;;5070845;28;20251;-69
2021/12/24 05:08:48;;;;;;;20.87;13.57;;;;;;;;;;5070641;28;20211;-70
2021/12/24 05:11:15;;;;;;;24.43;13.17;;;;;;;;;;5069280;28;20245;-69
2021/12/24 05:13:41;;;;;;;24.27;15.60;;;;;;;;;;5070872;28;20204;-70
2021/12/24 05:16:19;;;;;;;21.83;13.03;;;;;;;;;;5070376;28;20231;-70
2021/12/24 05:21:32;;;;;;;24.87;13.77;;;;;;;;;;5071229;28;20216;-69
2021/12/24 05:21:48;;;;;;;22.30;12.20;;;;;;;;;;5070072;28;20222;-69
2021/12/24 05:24:16;;;;;;;19.63;11.53;;;;;;;;;;5070581;28;20209;-69
2021/12/24 05:26:45;;;;;;;20.70;9.80;;;;;;;;;;5070787;28;20247;-69
2021/12/24 05:29:13;;;;;;;18.90;9.63;;;;;;;;;;5070326;28;20214;-69
2021/12/24 05:31:42;;;;;;;21.40;9.87;;;;;;;;;;5069884;28;20258;-74
2021/12/24 05:34:08;;;;;;;25.83;10.50;;;;;;;;;;5070824;28;20211;-74
2021/12/24 05:36:35;;;;;;;26.37;10.40;;;;;;;;;;5071972;28;20230;-74
2021/12/24 05:39:02;;;;;;;18.40;9.73;;;;;;;;;;5072313;28;20219;-74
2021/12/24 05:41:30;;;;;;;19.73;9.60;;;;;;;;;;5072621;28;20707;-73
2021/12/24 05:43:58;;;;;;;20.60;10.37;;;;;;;;;;5070571;28;20215;-74
2021/12/24 05:46:24;;;;;;;15.97;8.70;;;;;;;;;;5071104;28;20229;-74
2021/12/24 05:48:52;;;;;;;21.13;10.03;;;;;;;;;;5072065;28;20232;-74
2021/12/24 05:51:19;;;;;;;22.60;10.07;;;;;;;;;;5070037;28;20288;-74
2021/12/24 05:53:45;;;;;;;20.30;10.30;;;;;;;;;;5069927;28;20206;-74
2021/12/24 05:56:12;;;;;;;18.40;9.70;;;;;;;;;;5072306;28;20442;-74
2021/12/24 05:58:38;;;;;;;14.40;8.10;;;;;;;;;;5068325;28;20219;-74
2021/12/24 06:01:05;;;;;;;16.23;8.90;;;;;;;;;;5071142;28;20622;-75
2021/12/24 06:03:31;;;;;;;17.13;9.00;;;;;;;;;;5071360;28;20220;-75
2021/12/24 06:05:59;;;;;;;19.33;9.20;;;;;;;;;;5071393;28;20736;-75
2021/12/24 06:08:25;;;;;;;13.17;7.00;;;;;;;;;;5069117;28;20253;-75
2021/12/24 06:10:52;;;;;;;20.30;8.90;;;;;;;;;;5069265;28;20233;-77
2021/12/24 06:13:18;;;;;;;19.40;8.97;;;;;;;;;;5071096;28;20966;-75
2021/12/24 06:15:46;;;;;;;21.93;8.40;;;;;;;;;;5069839;28;20244;-75
2021/12/24 06:18:21;;;;;;;20.03;8.40;;;;;;;;;;5071127;28;20307;-77
2021/12/24 06:20:48;;;;;;;15.40;8.23;;;;;;;;;;5070919;28;20597;-75
2021/12/24 06:23:18;;;;;;;21.67;8.40;;;;;;;;;;5066942;28;20260;-75
2021/12/24 06:25:45;;;;;;;14.40;7.33;;;;;;;;;;5069285;28;20234;-76
2021/12/24 06:28:11;;;;;;;14.27;8.33;;;;;;;;;;5071504;28;21195;-76
2021/12/24 06:30:39;;;;;;;16.30;8.03;;;;;;;;;;5069804;28;20271;-77
2021/12/24 06:33:05;;;;;;;22.63;7.77;;;;;;;;;;5070862;28;20223;-77
2021/12/24 06:35:32;;;;;;;21.67;7.00;;;;;;;;;;5070683;28;20264;-76
2021/12/24 06:37:59;;;;;;;15.77;7.07;;;;;;;;;;5069911;28;20660;-76
2021/12/24 06:40:27;;;;;;;22.60;7.97;;;;;;;;;;5068770;28;20223;-76
2021/12/24 06:42:53;;;;;;;16.50;7.57;;;;;;;;;;5070205;28;20258;-74
2021/12/24 06:45:23;;;;;;;20.40;7.10;;;;;;;;;;5068623;28;20219;-75
2021/12/24 06:47:50;;;;;;;17.30;6.73;;;;;;;;;;5069180;28;20226;-77
2021/12/24 06:50:17;;;;;;;15.00;7.40;;;;;;;;;;5068024;28;20645;-76
2021/12/24 06:52:43;;;;;;;18.77;6.40;;;;;;;;;;5070476;28;20222;-75
2021/12/24 06:55:10;;;;;;;14.23;6.70;;;;;;;;;;5068955;28;20458;-74
2021/12/24 06:57:39;;;;;;;15.53;6.57;;;;;;;;;;5069854;28;20222;-75
2021/12/24 07:00:07;;;;;;;17.97;6.53;;;;;;;;;;5069431;28;20723;-76
2021/12/24 07:02:34;;;;;;;19.20;6.60;;;;;;;;;;5067439;28;20270;-75
2021/12/24 07:05:00;;;;;;;19.00;6.20;;;;;;;;;;5070199;28;20281;-75
2021/12/24 07:07:27;;;;;;;16.43;6.90;;;;;;;;;;5068230;28;20211;-75
2021/12/24 07:09:53;;;;;;;17.70;6.37;;;;;;;;;;5067148;28;20277;-75
2021/12/24 07:12:20;;;;;;;18.40;5.93;;;;;;;;;;5065531;28;20215;-75
2021/12/24 07:14:49;;;;;;;25.50;7.77;;;;;;;;;;5067270;28;20272;-75
2021/12/24 07:17:17;;;;;;;22.67;6.27;;;;;;;;;;5066201;28;20227;-75
2021/12/24 07:19:44;;;;;;;20.67;6.87;;;;;;;;;;5067039;28;20631;-75
2021/12/24 07:22:12;;;;;;;22.53;5.97;;;;;;;;;;5066610;28;20758;-75
2021/12/24 07:24:38;;;;;;;17.73;6.10;;;;;;;;;;5067348;28;20224;-76
2021/12/24 07:27:05;;;;;;;22.73;6.23;;;;;;;;;;5067435;28;20292;-75
2021/12/24 07:29:32;;;;;;;17.57;5.80;;;;;;;;;;5069871;28;20632;-75
2021/12/24 07:32:00;;;;;;;18.83;6.50;;;;;;;;;;5066712;28;20227;-76
2021/12/24 07:34:27;;;;;;;20.50;5.77;;;;;;;;;;5066240;28;20670;-75
2021/12/24 07:36:53;;;;;;;18.60;6.10;;;;;;;;;;5067147;28;20623;-74
2021/12/24 07:39:20;;;;;;;17.80;6.20;;;;;;;;;;5067848;28;20219;-76
2021/12/24 07:41:47;;;;;;;18.60;5.90;;;;;;;;;;5068666;28;20276;-75
2021/12/24 07:44:13;;;;;;;19.63;6.27;;;;;;;;;;5067036;28;20211;-75
2021/12/24 07:46:45;;;;;;;21.83;5.77;;;;;;;;;;5066987;28;20287;-75
2021/12/24 07:49:19;;;;;;;20.83;5.53;;;;;;;;;;5066841;28;20843;-75
2021/12/24 07:52:05;;;;;;;24.97;6.50;;;;;;;;;;5068278;28;20617;-75
2021/12/24 07:54:33;;;;;;;18.83;5.53;;;;;;;;;;5067310;28;20829;-75
2021/12/24 07:57:01;;;;;;;23.47;5.83;;;;;;;;;;5065918;28;20207;-75
2021/12/24 07:59:29;;;;;;;15.77;5.20;;;;;;;;;;5067291;28;20241;-75
2021/12/24 08:01:57;;;;;;;20.67;7.10;;;;;;;;;;5065113;28;20340;-76
2021/12/24 08:04:25;;;;;;;17.90;5.90;;;;;;;;;;5067754;28;20211;-76
2021/12/24 08:06:51;;;;;;;20.30;7.57;;;;;;;;;;5067490;28;20211;-76
2021/12/24 08:09:18;;;;;;;19.57;5.33;;;;;;;;;;5067603;28;20500;-76
2021/12/24 08:11:44;;;;;;;21.17;6.50;;;;;;;;;;5065780;28;20224;-76
2021/12/24 08:14:11;;;;;;;18.33;5.57;;;;;;;;;;5067083;28;20283;-75
2021/12/24 08:16:37;;;;;;;21.10;6.13;;;;;;;;;;5068995;28;20238;-76
2021/12/24 08:19:04;;;;;;;15.63;5.27;;;;;;;;;;5105040;22;20250;-88
2021/12/24 08:21:32;;;;;;;19.60;6.03;;;;;;;;;;5055188;28;20223;-88
2021/12/24 08:23:59;;;;;;;18.20;5.73;;;;;;;;;;5058553;28;20219;-88
2021/12/24 08:26:29;;;;;;;26.10;7.07;;;;;;;;;;5054534;28;20224;-88
2021/12/24 08:28:55;;;;;;;20.20;5.93;;;;;;;;;;5060356;28;20207;-88
2021/12/24 08:31:22;;;;;;;17.73;5.47;;;;;;;;;;5061008;28;20238;-88
2021/12/24 08:33:48;;;;;;;19.87;6.80;;;;;;;;;;5060314;28;20215;-88
2021/12/24 08:36:15;;;;;;;20.77;6.77;;;;;;;;;;5061531;28;20203;-88
2021/12/24 08:38:44;;;;;;;19.20;6.40;;;;;;;;;;5057159;28;20224;-88
2021/12/24 08:41:10;;;;;;;23.23;6.73;;;;;;;;;;5055912;28;20221;-88
2021/12/24 08:43:38;;;;;;;17.70;6.47;;;;;;;;;;5060118;28;20222;-88
2021/12/24 08:46:04;;;;;;;21.13;7.07;;;;;;;;;;5056980;28;20635;-88
2021/12/24 08:48:31;;;;;;;19.57;7.27;;;;;;;;;;5066099;28;20214;-88
2021/12/24 08:50:57;;;;;;;19.87;7.47;;;;;;;;;;5067562;28;20239;-88
2021/12/24 08:53:26;;;;;;;23.30;9.03;;;;;;;;;;5065263;28;20284;-88
2021/12/24 08:55:54;;;;;;;19.17;8.53;;;;;;;;;;5068360;28;20836;-88
2021/12/24 08:58:21;;;;;;;28.37;8.30;;;;;;;;;;5065912;28;20703;-88
2021/12/24 09:00:48;;;;;;;23.57;8.77;;;;;;;;;;5063801;28;20683;-88
2021/12/24 09:03:15;;;;;;;23.20;8.87;;;;;;;;;;5063606;28;20202;-88
2021/12/24 09:05:41;;;;;;;33.80;9.67;;;;;;;;;;5066732;28;20711;-88
2021/12/24 09:08:09;;;;;;;21.47;8.70;;;;;;;;;;5064151;28;20216;-88
2021/12/24 09:10:36;;;;;;;24.27;8.70;;;;;;;;;;5065637;28;20305;-89
2021/12/24 09:13:04;;;;;;;25.00;8.77;;;;;;;;;;5063149;28;20200;-90
2021/12/24 09:15:31;;;;;;;30.20;10.23;;;;;;;;;;5066284;28;20231;-89
2021/12/24 09:17:58;;;;;;;20.60;8.53;;;;;;;;;;5063292;28;20722;-90
2021/12/24 09:20:30;;;;;;;22.20;9.20;;;;;;;;;;5061968;28;20249;-90
2021/12/24 09:22:59;;;;;;;23.47;9.63;;;;;;;;;;5063620;28;20590;-89
2021/12/24 09:25:27;;;;;;;24.43;9.83;;;;;;;;;;5061660;28;20220;-90
2021/12/24 09:27:56;;;;;;;23.33;9.97;;;;;;;;;;5063433;28;20202;-90
2021/12/24 09:30:25;;;;;;;26.63;10.47;;;;;;;;;;5061927;28;20395;-90
2021/12/24 09:32:53;;;;;;;31.00;10.33;;;;;;;;;;5061721;28;20206;-89
2021/12/24 09:35:20;;;;;;;23.83;9.03;;;;;;;;;;5066158;28;20283;-89
2021/12/24 09:37:47;;;;;;;21.37;9.30;;;;;;;;;;5066054;28;21038;-89
2021/12/24 09:40:16;;;;;;;21.63;8.47;;;;;;;;;;5065226;28;20248;-89
2021/12/24 09:42:44;;;;;;;22.90;9.63;;;;;;;;;;5065275;28;20200;-87
2021/12/24 09:45:12;;;;;;;23.23;9.20;;;;;;;;;;5065082;28;20207;-89
2021/12/24 09:47:41;;;;;;;22.93;8.13;;;;;;;;;;5066698;28;20226;-89
2021/12/24 09:52:53;;;;;;;24.30;8.53;;;;;;;;;;5068562;28;20207;-91
2021/12/24 09:55:22;;;;;;;25.43;9.60;;;;;;;;;;5063819;28;20260;-90
2021/12/24 09:57:51;;;;;;;22.80;9.57;;;;;;;;;;5057687;28;20239;-90
2021/12/24 10:00:20;;;;;;;21.33;9.07;;;;;;;;;;5061643;28;20211;-90
2021/12/24 10:02:52;;;;;;;26.87;8.33;;;;;;;;;;5061099;28;20228;-90
2021/12/24 10:05:27;;;;;;;23.47;8.50;;;;;;;;;;5061968;28;21290;-89
2021/12/24 10:07:59;;;;;;;21.00;9.50;;;;;;;;;;5057213;28;20206;-89
2021/12/24 10:10:28;;;;;;;22.50;9.10;;;;;;;;;;5062475;28;20221;-89
2021/12/24 10:12:55;;;;;;;25.83;9.33;;;;;;;;;;5063553;28;20238;-90
2021/12/24 10:15:22;;;;;;;25.57;9.20;;;;;;;;;;5060493;28;20228;-90
2021/12/24 10:17:50;;;;;;;30.33;10.07;;;;;;;;;;5060367;28;20228;-90
2021/12/24 10:20:20;;;;;;;23.93;9.67;;;;;;;;;;5062572;28;20254;-90
2021/12/24 10:22:48;;;;;;;29.50;10.07;;;;;;;;;;5066432;28;20219;-91
2021/12/24 10:25:16;;;;;;;30.17;9.57;;;;;;;;;;5080417;28;20221;-91
2021/12/24 10:27:45;;;;;;;25.80;8.90;;;;;;;;;;5065355;28;20249;-90
2021/12/24 10:30:21;;;;;;;25.20;8.93;;;;;;;;;;5061106;28;20217;-90
2021/12/24 10:32:52;;;;;;;23.60;9.07;;;;;;;;;;5063501;28;20232;-90
2021/12/24 10:35:21;;;;;;;25.70;8.90;;;;;;;;;;5062474;28;20623;-90
2021/12/24 10:38:07;;;;;;;27.80;8.73;;;;;;;;;;5063741;28;20220;-90
2021/12/24 10:40:36;;;;;;;27.20;9.73;;;;;;;;;;5063281;28;20224;-89
2021/12/24 10:43:03;;;;;;;28.23;9.30;;;;;;;;;;5066110;28;20258;-90
2021/12/24 10:45:32;;;;;;;23.63;9.53;;;;;;;;;;5062737;28;20246;-91
2021/12/24 10:48:19;;;;;;;23.43;9.77;;;;;;;;;;5059766;28;20666;-91
2021/12/24 10:51:05;;;;;;;26.07;9.23;;;;;;;;;;5063120;28;20290;-90
2021/12/24 10:53:34;;;;;;;18.77;8.43;;;;;;;;;;5062901;28;20216;-90
2021/12/24 10:56:02;;;;;;;25.50;9.27;;;;;;;;;;5062850;28;20462;-90
2021/12/24 10:58:30;;;;;;;20.00;7.80;;;;;;;;;;5061032;28;20224;-90
2021/12/24 11:00:59;;;;;;;19.43;7.90;;;;;;;;;;5061983;28;20220;-90
2021/12/24 11:03:31;;;;;;;21.60;8.63;;;;;;;;;;5068570;28;20204;-90
2021/12/24 11:06:05;;;;;;;21.53;7.93;;;;;;;;;;5064415;28;20631;-89
2021/12/24 11:08:32;;;;;;;22.80;7.80;;;;;;;;;;5062194;28;20214;-89
2021/12/24 11:11:02;;;;;;;24.40;8.77;;;;;;;;;;5060562;28;20220;-90
2021/12/24 11:13:37;;;;;;;25.23;7.63;;;;;;;;;;5066942;28;20216;-90
2021/12/24 11:16:06;;;;;;;21.53;7.73;;;;;;;;;;5060276;28;20612;-90
2021/12/24 11:18:38;;;;;;;24.00;8.37;;;;;;;;;;5061519;28;20263;-90
2021/12/24 11:21:07;;;;;;;22.50;7.53;;;;;;;;;;5061135;28;20700;-91
2021/12/24 11:23:37;;;;;;;28.67;7.90;;;;;;;;;;5061618;28;20543;-91
2021/12/24 11:26:07;;;;;;;22.17;7.83;;;;;;;;;;5060560;28;20709;-90
2021/12/24 11:28:35;;;;;;;18.07;7.53;;;;;;;;;;5062937;28;20219;-91
2021/12/24 11:31:07;;;;;;;26.73;8.67;;;;;;;;;;5061560;28;20227;-91
2021/12/24 11:33:42;;;;;;;22.33;7.87;;;;;;;;;;5064720;28;20222;-90
2021/12/24 11:36:10;;;;;;;20.63;7.67;;;;;;;;;;5062645;28;20236;-87
2021/12/24 11:38:39;;;;;;;22.50;8.13;;;;;;;;;;5059037;28;20243;-89
2021/12/24 11:41:10;;;;;;;22.80;9.13;;;;;;;;;;5060157;28;20234;-90
2021/12/24 11:43:39;;;;;;;17.17;7.77;;;;;;;;;;5060195;28;20218;-89
2021/12/24 11:46:09;;;;;;;18.23;7.00;;;;;;;;;;5062697;28;20219;-89
2021/12/24 11:48:38;;;;;;;23.43;7.80;;;;;;;;;;5062697;28;20203;-89
2021/12/24 11:51:09;;;;;;;21.67;7.90;;;;;;;;;;5063015;28;20225;-89
2021/12/24 11:53:37;;;;;;;17.63;7.10;;;;;;;;;;5062350;28;20207;-88
2021/12/24 11:56:07;;;;;;;16.70;7.53;;;;;;;;;;5072065;28;20219;-89
2021/12/24 11:58:41;;;;;;;13.50;6.70;;;;;;;;;;5073152;28;20345;-89
2021/12/24 12:01:08;;;;;;;18.77;6.97;;;;;;;;;;5062926;28;20225;-89
2021/12/24 12:03:45;;;;;;;20.07;7.77;;;;;;;;;;5061395;28;20668;-89
2021/12/24 12:06:32;;;;;;;14.93;6.47;;;;;;;;;;5062328;28;20210;-90
2021/12/24 12:09:00;;;;;;;13.63;5.93;;;;;;;;;;5060841;28;20215;-89
2021/12/24 12:11:29;;;;;;;10.00;4.63;;;;;;;;;;5060352;28;20219;-90
2021/12/24 12:13:59;;;;;;;9.67;3.97;;;;;;;;;;5061968;28;20199;-89
2021/12/24 12:16:29;;;;;;;13.00;4.80;;;;;;;;;;5061229;28;20241;-90
2021/12/24 12:19:15;;;;;;;10.13;3.80;;;;;;;;;;5063147;28;20248;-89
2021/12/24 12:21:44;;;;;;;9.07;4.00;;;;;;;;;;5066507;28;20223;-90
2021/12/24 12:26:59;;;;;;;7.97;4.47;;;;;;;;;;5066387;28;20283;-89
2021/12/24 12:29:30;;;;;;;10.17;4.30;;;;;;;;;;5067449;28;20207;-87
2021/12/24 12:32:04;;;;;;;6.03;3.93;;;;;;;;;;5067881;28;20199;-89
2021/12/24 12:34:51;;;;;;;6.27;3.30;;;;;;;;;;5063109;28;20200;-88
2021/12/24 12:37:21;;;;;;;6.07;4.03;;;;;;;;;;5066285;28;20206;-89
2021/12/24 12:39:49;;;;;;;9.80;5.10;;;;;;;;;;5065296;28;20368;-88
2021/12/24 12:42:18;;;;;;;9.53;5.07;;;;;;;;;;5066006;28;20205;-89
2021/12/24 12:44:47;;;;;;;10.33;5.07;;;;;;;;;;5062775;28;20252;-89
2021/12/24 12:47:17;;;;;;;8.40;4.13;;;;;;;;;;5061839;28;20562;-88
2021/12/24 12:49:45;;;;;;;7.53;4.30;;;;;;;;;;5064671;28;20598;-89
2021/12/24 12:52:24;;;;;;;4.70;3.17;;;;;;;;;;5065623;28;20648;-89
2021/12/24 12:54:52;;;;;;;7.30;3.23;;;;;;;;;;5066323;28;20237;-89
2021/12/24 12:57:30;;;;;;;3.50;2.60;;;;;;;;;;5064446;28;20222;-89
2021/12/24 13:00:20;;;;;;;4.00;2.50;;;;;;;;;;5064374;28;20225;-89
2021/12/24 13:03:10;;;;;;;2.37;1.77;;;;;;;;;;5061704;28;20223;-89
2021/12/24 13:06:05;;;;;;;1.43;1.33;;;;;;;;;;5061292;28;20223;-89
2021/12/24 13:08:36;;;;;;;1.60;1.03;;;;;;;;;;5064890;28;20294;-89
2021/12/24 13:11:06;;;;;;;1.97;1.30;;;;;;;;;;5060594;28;20227;-89
2021/12/24 13:13:41;;;;;;;2.30;1.10;;;;;;;;;;5062876;28;20243;-89
2021/12/24 13:16:16;;;;;;;1.40;1.30;;;;;;;;;;5064191;28;20710;-89
2021/12/24 13:18:46;;;;;;;0.87;0.87;;;;;;;;;;5061594;28;20250;-89
2021/12/24 13:23:59;;;;;;;1.03;1.03;;;;;;;;;;5062704;28;20291;-89
2021/12/24 13:26:26;;;;;;;1.27;1.17;;;;;;;;;;5062533;28;20227;-89
2021/12/24 13:28:58;;;;;;;1.30;1.20;;;;;;;;;;5062459;28;20308;-88
2021/12/24 13:31:26;;;;;;;1.20;1.10;;;;;;;;;;5061841;28;20230;-89
2021/12/24 13:33:53;;;;;;;1.40;1.27;;;;;;;;;;5063444;28;20208;-88
2021/12/24 13:36:24;;;;;;;1.50;1.23;;;;;;;;;;5064251;28;20246;-89
2021/12/24 13:38:51;;;;;;;1.23;1.10;;;;;;;;;;5064899;28;20213;-89
2021/12/24 13:41:25;;;;;;;1.17;1.07;;;;;;;;;;5065362;28;20242;-88
2021/12/24 13:43:51;;;;;;;2.20;1.30;;;;;;;;;;5066150;28;20203;-88
2021/12/24 13:46:18;;;;;;;2.20;1.33;;;;;;;;;;5066068;28;20211;-88
2021/12/24 13:49:10;;;;;;;1.33;1.23;;;;;;;;;;5080329;28;20196;-88
2021/12/24 13:54:33;;;;;;;1.50;1.40;;;;;;;;;;5062311;28;20285;-88
2021/12/24 13:57:06;;;;;;;1.40;1.30;;;;;;;;;;5062422;28;20270;-88
2021/12/24 13:59:34;;;;;;;1.60;1.50;;;;;;;;;;5062492;28;20228;-88
2021/12/24 14:02:02;;;;;;;1.73;1.63;;;;;;;;;;5064721;28;20214;-88
2021/12/24 14:04:28;;;;;;;1.97;1.80;;;;;;;;;;5064749;28;20214;-89
2021/12/24 14:06:59;;;;;;;1.80;1.70;;;;;;;;;;5060673;28;20211;-88
2021/12/24 14:09:29;;;;;;;2.27;1.60;;;;;;;;;;5063826;28;20213;-88
2021/12/24 14:11:58;;;;;;;1.90;1.80;;;;;;;;;;5063725;28;20238;-88
2021/12/24 14:14:41;;;;;;;1.83;1.67;;;;;;;;;;5062771;28;20199;-88
2021/12/24 14:17:33;;;;;;;1.93;1.80;;;;;;;;;;5065627;28;20249;-88
2021/12/24 14:20:06;;;;;;;3.27;2.30;;;;;;;;;;5065248;28;20242;-88
2021/12/24 14:22:35;;;;;;;2.90;2.43;;;;;;;;;;5063577;28;20239;-87
2021/12/24 14:25:07;;;;;;;1.90;1.80;;;;;;;;;;5064004;28;20226;-88
2021/12/24 14:27:37;;;;;;;2.83;2.37;;;;;;;;;;5061945;28;20223;-87
2021/12/24 14:30:08;;;;;;;2.17;2.07;;;;;;;;;;5065243;28;20251;-87
2021/12/24 14:32:36;;;;;;;2.53;2.33;;;;;;;;;;5066377;28;20226;-88
2021/12/24 14:35:15;;;;;;;2.80;2.27;;;;;;;;;;5062197;28;20212;-91
2021/12/24 14:37:43;;;;;;;2.40;1.67;;;;;;;;;;5060686;28;20230;-87
2021/12/24 14:40:16;;;;;;;2.50;2.30;;;;;;;;;;5060146;28;20270;-88
2021/12/24 14:42:46;;;;;;;2.37;2.17;;;;;;;;;;5063338;28;20789;-88
2021/12/24 14:45:24;;;;;;;2.33;2.00;;;;;;;;;;5060026;28;20217;-88
2021/12/24 14:48:01;;;;;;;2.33;2.10;;;;;;;;;;5063224;28;20224;-88
2021/12/24 14:50:28;;;;;;;3.00;2.30;;;;;;;;;;5063316;28;20234;-88
2021/12/24 14:53:11;;;;;;;3.13;2.90;;;;;;;;;;5063359;28;20546;-88
2021/12/24 14:55:43;;;;;;;3.90;3.23;;;;;;;;;;5063823;28;20202;-88
2021/12/24 14:58:10;;;;;;;3.23;2.97;;;;;;;;;;5067509;28;20217;-90
2021/12/24 15:00:41;;;;;;;3.27;2.70;;;;;;;;;;5063576;28;20232;-88
2021/12/24 15:03:11;;;;;;;3.57;3.00;;;;;;;;;;5065037;28;20195;-88
2021/12/24 15:05:40;;;;;;;5.37;4.10;;;;;;;;;;5064466;28;20213;-89
2021/12/24 15:08:22;;;;;;;4.70;4.20;;;;;;;;;;5064797;28;20227;-88
2021/12/24 15:11:17;;;;;;;3.90;3.60;;;;;;;;;;5060564;28;20231;-89
2021/12/24 15:13:46;;;;;;;2.97;2.60;;;;;;;;;;5064457;28;20208;-88
2021/12/24 15:16:19;;;;;;;2.87;2.67;;;;;;;;;;5064836;28;20513;-88
2021/12/24 15:18:49;;;;;;;4.87;4.37;;;;;;;;;;5064069;28;20250;-88
2021/12/24 15:21:16;;;;;;;4.20;3.73;;;;;;;;;;5061233;28;20216;-88
2021/12/24 15:23:44;;;;;;;4.53;3.83;;;;;;;;;;5063332;28;20208;-88
2021/12/24 15:26:11;;;;;;;4.67;3.90;;;;;;;;;;5062367;28;20590;-88
2021/12/24 15:28:43;;;;;;;5.23;4.73;;;;;;;;;;5063676;28;20213;-88
2021/12/24 15:31:10;;;;;;;4.60;4.07;;;;;;;;;;5062143;28;20233;-88
2021/12/24 15:33:38;;;;;;;4.70;4.17;;;;;;;;;;5063738;28;20214;-88
2021/12/24 15:36:06;;;;;;;4.70;4.17;;;;;;;;;;5065834;28;20208;-88
2021/12/24 15:38:33;;;;;;;4.47;4.07;;;;;;;;;;5063233;28;20207;-88
2021/12/24 15:41:01;;;;;;;4.20;3.83;;;;;;;;;;5064876;28;20287;-89
2021/12/24 15:43:27;;;;;;;4.93;4.53;;;;;;;;;;5061749;28;20767;-88
2021/12/24 15:45:55;;;;;;;5.43;4.70;;;;;;;;;;5065247;28;20230;-89
2021/12/24 15:48:24;;;;;;;5.90;5.40;;;;;;;;;;5061392;28;20560;-89
2021/12/24 15:50:53;;;;;;;3.97;3.40;;;;;;;;;;5064876;28;20237;-88
2021/12/24 15:53:20;;;;;;;4.10;3.67;;;;;;;;;;5062660;28;20238;-88
2021/12/24 15:55:47;;;;;;;4.47;4.07;;;;;;;;;;5059733;28;20220;-89
2021/12/24 15:58:16;;;;;;;5.03;4.63;;;;;;;;;;5045448;28;20207;-88
2021/12/24 16:00:46;;;;;;;4.77;4.37;;;;;;;;;;5064980;28;20265;-89
2021/12/24 16:03:13;;;;;;;5.43;4.93;;;;;;;;;;5066165;28;20510;-89